Time;durP1;ratioP1;P1;durP2;ratioP2;P2;SDS_P1;SDS_P2;PMS_P1;PMS_P2;Temp;Humidity;BMP_temperature;BMP_pressure;BME280_temperature;BME280_humidity;BME280_pressure;Samples;Min_cycle;Max_cycle;Signal;HPM_P1;HPM_P2
2024/02/10 00:02:00;;;;;;;4.90;4.20;;;;;;;-147.86;100.00;36097.70;105742;1256;59967;-53
2024/02/10 00:04:28;;;;;;;5.40;4.10;;;;;;;-147.86;100.00;36077.38;105730;1253;71915;-53
2024/02/10 00:06:56;;;;;;;5.90;4.60;;;;;;;-147.86;100.00;36050.41;105923;1256;63275;-54
2024/02/10 00:09:24;;;;;;;4.30;3.90;;;;;;;-147.86;100.00;36004.68;105729;1257;75042;-56
2024/02/10 00:11:52;;;;;;;4.40;4.00;;;;;;;-147.86;100.00;35951.52;105713;1254;59760;-55
2024/02/10 00:14:21;;;;;;;5.70;4.20;;;;;;;-147.86;100.00;35951.91;105726;1256;59560;-54
2024/02/10 00:16:48;;;;;;;3.90;3.50;;;;;;;-147.86;100.00;36000.38;105740;1260;71836;-55
2024/02/10 00:19:17;;;;;;;5.20;4.70;;;;;;;-147.86;100.00;35976.14;105741;1251;63087;-57
2024/02/10 00:21:45;;;;;;;4.40;3.90;;;;;;;-147.86;100.00;35994.13;105779;1255;71628;-53
2024/02/10 00:24:13;;;;;;;4.90;4.30;;;;;;;-147.86;100.00;36001.16;105737;1253;60867;-56
2024/02/10 00:26:41;;;;;;;4.70;3.90;;;;;;;-147.86;100.00;36009.37;105893;1256;60020;-55
2024/02/10 00:29:12;;;;;;;4.80;4.40;;;;;;;-147.86;100.00;36010.15;105712;1254;71813;-56
2024/02/10 00:31:43;;;;;;;5.60;4.10;;;;;;;-147.86;100.00;36070.74;105763;1252;63417;-55
2024/02/10 00:34:13;;;;;;;12.40;4.70;;;;;;;-147.86;100.00;36164.55;105738;1253;71458;-57
2024/02/10 00:36:41;;;;;;;4.30;3.90;;;;;;;-147.86;100.00;36245.46;105739;1257;59749;-54
2024/02/10 00:39:10;;;;;;;4.40;4.00;;;;;;;-147.86;100.00;36282.98;105692;1257;59548;-53
2024/02/10 00:41:38;;;;;;;6.50;3.70;;;;;;;-147.86;100.00;36436.21;105796;1260;72138;-56
2024/02/10 00:44:06;;;;;;;4.40;4.00;;;;;;;-147.86;100.00;36437.77;105703;1251;64459;-58
2024/02/10 00:46:34;;;;;;;4.50;4.10;;;;;;;-147.86;100.00;36438.95;105697;1252;70748;-55
2024/02/10 00:49:02;;;;;;;5.30;4.40;;;;;;;-147.86;100.00;36534.33;105924;1253;59753;-56
2024/02/10 00:51:30;;;;;;;6.60;3.70;;;;;;;-147.86;100.00;36587.10;105734;1258;60049;-53
2024/02/10 01:55:01;;;;;;;;;;;;;;;-147.86;100.00;46233.66;102827;1290;601067;-54
2024/02/10 01:57:30;;;;;;;2.30;2.10;;;;;;;-147.86;100.00;38980.64;105159;1264;60843;-55
2024/02/10 01:59:59;;;;;;;2.00;1.90;;;;;;;-147.86;100.00;38899.27;104901;1269;59367;-55
2024/02/10 02:02:30;;;;;;;2.80;2.50;;;;;;;-147.86;100.00;38893.02;105480;1263;72202;-54
2024/02/10 02:05:03;;;;;;;1.90;1.70;;;;;;;-147.86;100.00;38910.23;105622;1257;64416;-56
2024/02/10 02:07:31;;;;;;;3.30;2.00;;;;;;;-147.86;100.00;38832.00;105414;1257;244237;-52
2024/02/10 02:10:00;;;;;;;8.50;2.10;;;;;;;-147.86;100.00;38830.82;105716;1258;59746;-54
2024/02/10 02:12:28;;;;;;;2.30;2.10;;;;;;;-147.86;100.00;38881.67;105675;1254;60041;-55
2024/02/10 02:14:57;;;;;;;1.90;1.80;;;;;;;-147.86;100.00;38999.02;105630;1260;72159;-53
2024/02/10 02:17:25;;;;;;;2.30;2.10;;;;;;;-147.86;100.00;39029.92;105708;1260;63111;-53
2024/02/10 02:19:53;;;;;;;2.30;2.10;;;;;;;-147.86;100.00;38965.38;105661;1258;71067;-55
2024/02/10 02:22:21;;;;;;;1.90;1.80;;;;;;;-147.86;100.00;38966.16;105652;1257;59770;-52
2024/02/10 02:24:48;;;;;;;2.40;1.60;;;;;;;-147.86;100.00;38992.37;105677;1259;59615;-54
2024/02/10 02:27:16;;;;;;;1.80;1.70;;;;;;;-147.86;100.00;39033.44;105628;1260;73047;-54
2024/02/10 02:29:44;;;;;;;2.00;1.80;;;;;;;-147.86;100.00;38917.66;105611;1254;63769;-55
2024/02/10 02:32:13;;;;;;;1.80;1.70;;;;;;;-147.86;100.00;38850.38;105718;1255;71447;-55
2024/02/10 02:34:42;;;;;;;2.00;1.70;;;;;;;-147.86;100.00;38794.45;105639;1254;60910;-52
2024/02/10 02:37:10;;;;;;;1.80;1.60;;;;;;;-147.86;100.00;38885.20;105684;1259;60014;-53
2024/02/10 02:39:38;;;;;;;1.30;1.30;;;;;;;-147.86;100.00;38900.06;105676;1255;71782;-55
2024/02/10 02:42:07;;;;;;;1.10;1.10;;;;;;;-147.86;100.00;38910.62;105688;1260;63969;-54
2024/02/10 02:44:36;;;;;;;1.20;1.10;;;;;;;-147.86;100.00;38886.37;105656;1260;71443;-53
2024/02/10 02:47:04;;;;;;;1.30;1.20;;;;;;;-147.86;100.00;38883.24;105651;1255;59666;-54
2024/02/10 02:49:34;;;;;;;1.40;1.30;;;;;;;-147.86;100.00;38971.25;105659;1260;59668;-54
2024/02/10 02:52:07;;;;;;;1.80;1.60;;;;;;;-147.86;100.00;38985.72;105647;1254;71771;-49
2024/02/10 02:54:35;;;;;;;1.80;1.50;;;;;;;-147.86;100.00;39031.10;105654;1254;63101;-54
2024/02/10 02:57:04;;;;;;;1.50;1.40;;;;;;;-147.86;100.00;38902.41;105653;1254;72638;-54
2024/02/10 02:59:32;;;;;;;1.90;1.60;;;;;;;-147.86;100.00;38959.90;105639;1260;59887;-52
2024/02/10 03:02:02;;;;;;;1.50;1.40;;;;;;;-147.86;100.00;39031.09;105618;1260;59605;-53
2024/02/10 03:04:30;;;;;;;1.60;1.50;;;;;;;-147.86;100.00;39191.87;105657;1257;74462;-52
2024/02/10 03:06:59;;;;;;;1.80;1.70;;;;;;;-147.86;100.00;39259.93;105648;1260;64354;-53
2024/02/10 03:09:29;;;;;;;2.00;1.90;;;;;;;-147.86;100.00;39266.58;105574;1258;71805;-52
2024/02/10 03:11:57;;;;;;;2.10;2.00;;;;;;;-147.86;100.00;39341.30;105629;1260;60851;-54
2024/02/10 03:14:25;;;;;;;1.80;1.70;;;;;;;-147.86;100.00;39475.09;105614;1260;59641;-52
2024/02/10 03:16:53;;;;;;;1.90;1.80;;;;;;;-147.86;100.00;39598.32;105630;1260;72780;-54
2024/02/10 03:19:21;;;;;;;1.60;1.50;;;;;;;-147.86;100.00;39521.64;105585;1258;63129;-54
2024/02/10 03:21:49;;;;;;;1.50;1.40;;;;;;;-147.86;100.00;39485.65;105659;1257;72452;-54
2024/02/10 03:24:17;;;;;;;2.20;2.00;;;;;;;-147.86;100.00;39538.46;105590;1256;59854;-53
2024/02/10 03:26:45;;;;;;;1.60;1.60;;;;;;;-147.86;100.00;39666.78;105663;1260;60030;-56
2024/02/10 03:29:13;;;;;;;1.70;1.60;;;;;;;-147.86;100.00;39707.08;105639;1257;73065;-54
2024/02/10 03:31:43;;;;;;;1.50;1.40;;;;;;;-147.86;100.00;39816.23;105537;1262;64356;-55
2024/02/10 03:34:11;;;;;;;1.80;1.70;;;;;;;-147.86;100.00;39849.10;105647;1257;71424;-55
2024/02/10 03:36:40;;;;;;;1.80;1.70;;;;;;;-147.86;100.00;39986.43;105665;1259;59810;-55
2024/02/10 03:39:09;;;;;;;2.70;1.50;;;;;;;-147.86;100.00;39969.99;105558;1260;60009;-56
2024/02/10 03:41:37;;;;;;;1.50;1.50;;;;;;;-147.86;100.00;39990.73;105479;1260;73038;-56
2024/02/10 03:44:05;;;;;;;1.80;1.70;;;;;;;-147.86;100.00;39999.73;105575;1258;64339;-55
2024/02/10 03:46:33;;;;;;;1.50;1.50;;;;;;;-147.86;100.00;40108.50;105587;1258;71689;-54
2024/02/10 03:49:00;;;;;;;1.40;1.30;;;;;;;-147.86;100.00;40052.55;105574;1258;59678;-56
2024/02/10 03:51:30;;;;;;;1.30;1.30;;;;;;;-147.86;100.00;40037.29;105639;1255;59634;-56
2024/02/10 03:53:57;;;;;;;1.50;1.40;;;;;;;-147.86;100.00;40078.37;105634;1260;71297;-56
2024/02/10 03:56:27;;;;;;;1.70;1.60;;;;;;;-147.86;100.00;40064.29;105627;1257;63639;-56
2024/02/10 03:58:55;;;;;;;2.10;1.40;;;;;;;-147.86;100.00;40110.85;105635;1257;71370;-54
2024/02/10 04:01:23;;;;;;;1.60;1.50;;;;;;;-147.86;100.00;40072.90;105603;1257;59628;-56
2024/02/10 04:03:55;;;;;;;1.40;1.30;;;;;;;-147.86;100.00;40107.32;105621;1260;59518;-53
2024/02/10 04:06:23;;;;;;;1.90;1.80;;;;;;;-147.86;100.00;40111.24;105618;1260;71818;-54
2024/02/10 04:08:51;;;;;;;1.50;1.40;;;;;;;-147.86;100.00;40213.75;105621;1260;63104;-52
2024/02/10 04:11:19;;;;;;;1.80;1.60;;;;;;;-147.86;100.00;40211.80;105561;1258;72619;-56
2024/02/10 04:13:47;;;;;;;1.70;1.60;;;;;;;-147.86;100.00;40315.10;105605;1257;59771;-56
2024/02/10 04:16:15;;;;;;;2.00;1.90;;;;;;;-147.86;100.00;40362.83;105605;1260;59573;-54
2024/02/10 04:18:43;;;;;;;1.80;1.70;;;;;;;-147.86;100.00;40423.09;105651;1257;71605;-56
2024/02/10 04:21:12;;;;;;;2.10;2.00;;;;;;;-147.86;100.00;40432.09;105639;1260;63338;-55
2024/02/10 04:23:40;;;;;;;2.10;2.00;;;;;;;-147.86;100.00;40437.57;105620;1257;71533;-55
2024/02/10 04:26:08;;;;;;;3.70;2.40;;;;;;;-147.86;100.00;40484.14;105640;1256;60313;-55
2024/02/10 04:28:35;;;;;;;2.20;2.00;;;;;;;-147.86;100.00;40542.83;105624;1260;59637;-57
2024/02/10 04:31:04;;;;;;;2.50;2.20;;;;;;;-147.86;100.00;40529.92;105597;1257;71797;-55
2024/02/10 04:33:32;;;;;;;2.10;1.90;;;;;;;-147.86;100.00;40596.44;105643;1256;63132;-53
2024/02/10 04:35:59;;;;;;;1.90;1.80;;;;;;;-147.86;100.00;40667.27;105617;1260;71457;-55
2024/02/10 04:38:27;;;;;;;2.00;1.90;;;;;;;-147.86;100.00;40751.01;105577;1257;59858;-56
2024/02/10 04:40:57;;;;;;;2.40;2.00;;;;;;;-147.86;100.00;40739.66;105560;1258;59544;-55
2024/02/10 04:43:24;;;;;;;1.70;1.60;;;;;;;-147.86;100.00;40817.15;105651;1257;71810;-55
2024/02/10 04:45:53;;;;;;;2.00;1.80;;;;;;;-147.86;100.00;40933.77;105706;1257;63227;-56
2024/02/10 04:48:21;;;;;;;2.00;1.90;;;;;;;-147.86;100.00;41059.40;105582;1260;72003;-53
2024/02/10 04:50:49;;;;;;;2.20;2.00;;;;;;;-147.86;100.00;41114.18;105653;1258;59742;-54
2024/02/10 04:53:17;;;;;;;2.40;2.30;;;;;;;-147.86;100.00;41164.28;105584;1257;59980;-54
2024/02/10 04:55:45;;;;;;;2.30;2.10;;;;;;;-147.86;100.00;41231.99;105628;1255;72956;-55
2024/02/10 04:58:12;;;;;;;2.30;2.10;;;;;;;-147.86;100.00;41359.58;105630;1260;63149;-55
2024/02/10 05:00:41;;;;;;;2.60;2.40;;;;;;;-147.86;100.00;41366.63;105612;1258;71364;-55
2024/02/10 05:03:09;;;;;;;2.70;2.40;;;;;;;-147.86;100.00;41453.91;105654;1260;60848;-55
2024/02/10 05:05:37;;;;;;;2.30;2.00;;;;;;;-147.86;100.00;41563.51;105600;1260;59634;-55
2024/02/10 05:08:12;;;;;;;2.50;2.30;;;;;;;-147.86;100.00;41681.71;105581;1256;71926;-56
2024/02/10 05:10:41;;;;;;;2.80;2.40;;;;;;;-147.86;100.00;41844.94;105630;1257;63286;-54
2024/02/10 05:13:09;;;;;;;2.20;2.00;;;;;;;-147.86;100.00;41847.29;105593;1260;71478;-57
2024/02/10 05:15:37;;;;;;;3.30;2.70;;;;;;;-147.86;100.00;41901.70;105638;1255;60813;-55
2024/02/10 05:18:08;;;;;;;2.90;2.70;;;;;;;-147.86;100.00;41995.64;105634;1260;59573;-55
2024/02/10 05:20:36;;;;;;;3.50;2.80;;;;;;;-147.86;100.00;42155.75;105648;1258;72210;-55
2024/02/10 05:23:04;;;;;;;3.60;3.10;;;;;;;-147.86;100.00;42350.32;105631;1257;63302;-56
2024/02/10 05:25:34;;;;;;;4.90;2.70;;;;;;;-147.86;100.00;42541.37;105608;1260;71386;-55
2024/02/10 05:28:02;;;;;;;3.20;3.00;;;;;;;-147.86;100.00;42703.07;105608;1260;59691;-58
2024/02/10 05:30:29;;;;;;;2.70;2.50;;;;;;;-147.86;100.00;42790.77;105614;1257;59557;-56
2024/02/10 05:33:01;;;;;;;3.30;3.00;;;;;;;-147.86;100.00;42874.95;105609;1255;71802;-55
2024/02/10 05:35:31;;;;;;;3.50;2.70;;;;;;;-147.86;100.00;42970.49;105636;1258;63133;-56
2024/02/10 05:38:02;;;;;;;2.30;2.20;;;;;;;-147.86;100.00;43016.70;105580;1260;72525;-55
2024/02/10 05:40:31;;;;;;;3.50;3.10;;;;;;;-147.86;100.00;43143.17;105653;1258;59746;-54
2024/02/10 05:43:04;;;;;;;3.00;2.80;;;;;;;-147.86;100.00;43249.29;105588;1260;59602;-55
2024/02/10 05:45:34;;;;;;;4.10;3.20;;;;;;;-147.86;100.00;43392.22;105661;1260;71624;-53
2024/02/10 05:48:04;;;;;;;3.60;3.30;;;;;;;-147.86;100.00;43430.99;105624;1257;63253;-56
2024/02/10 05:50:32;;;;;;;4.20;2.90;;;;;;;-147.86;100.00;43518.71;105651;1260;72639;-53
2024/02/10 05:53:00;;;;;;;4.00;2.80;;;;;;;-147.86;100.00;43691.02;105678;1260;59865;-55
2024/02/10 05:55:30;;;;;;;3.50;3.00;;;;;;;-147.86;100.00;43834.74;105644;1260;59637;-56
2024/02/10 05:58:06;;;;;;;3.40;3.10;;;;;;;-147.86;100.00;44004.32;105581;1258;73034;-55
2024/02/10 06:00:40;;;;;;;3.40;3.10;;;;;;;-147.86;100.00;44191.15;105688;1258;63123;-54
2024/02/10 06:03:08;;;;;;;5.60;4.30;;;;;;;-147.86;100.00;44393.65;105671;1260;71477;-54
2024/02/10 06:05:36;;;;;;;5.60;4.00;;;;;;;-147.86;100.00;44441.83;105644;1258;60555;-53
2024/02/10 06:08:10;;;;;;;4.00;3.50;;;;;;;-147.86;100.00;44538.58;105627;1260;60367;-57
2024/02/10 06:10:39;;;;;;;7.50;3.10;;;;;;;-147.86;100.00;44604.39;105616;1260;73829;-57
2024/02/10 06:13:07;;;;;;;5.70;3.30;;;;;;;-147.86;100.00;44712.50;105621;1257;64340;-56
2024/02/10 06:15:35;;;;;;;3.50;2.70;;;;;;;-147.86;100.00;44765.78;105636;1257;71362;-56
2024/02/10 06:18:03;;;;;;;5.50;3.00;;;;;;;-147.86;100.00;44854.31;105587;1260;60552;-56
2024/02/10 06:20:32;;;;;;;3.90;3.20;;;;;;;-147.86;100.00;44923.65;105633;1257;60484;-56
2024/02/10 06:23:01;;;;;;;4.10;2.90;;;;;;;-147.86;100.00;45011.41;105907;1252;73812;-56
2024/02/10 06:25:28;;;;;;;3.30;2.60;;;;;;;-147.86;100.00;45156.35;105877;1251;63225;-54
2024/02/10 06:27:58;;;;;;;3.60;3.20;;;;;;;-147.86;100.00;45222.56;105887;1251;72635;-55
2024/02/10 06:30:30;;;;;;;3.30;3.00;;;;;;;-147.86;100.00;45247.64;105922;1257;60543;-54
2024/02/10 06:32:59;;;;;;;3.00;2.80;;;;;;;-147.86;100.00;45264.48;105892;1251;60456;-55
2024/02/10 06:35:27;;;;;;;4.30;2.80;;;;;;;-147.86;100.00;45358.51;105932;1257;72556;-54
2024/02/10 06:37:55;;;;;;;3.00;2.80;;;;;;;-147.86;100.00;45447.45;105933;1251;63290;-54
2024/02/10 06:40:24;;;;;;;3.10;2.80;;;;;;;-147.86;100.00;45501.91;105868;1253;71396;-55
2024/02/10 06:42:52;;;;;;;2.60;2.40;;;;;;;-147.86;100.00;45640.61;105961;1255;60488;-54
2024/02/10 06:45:24;;;;;;;2.60;2.40;;;;;;;-147.86;100.00;45851.80;105914;1257;60444;-55
2024/02/10 06:47:52;;;;;;;2.80;2.60;;;;;;;-147.86;100.00;45790.68;105930;1254;73427;-55
2024/02/10 06:50:29;;;;;;;2.40;2.20;;;;;;;-147.86;100.00;45850.63;105897;1251;64407;-56
2024/02/10 06:53:00;;;;;;;3.10;2.80;;;;;;;-147.86;100.00;46019.91;105930;1255;71396;-55
2024/02/10 06:55:29;;;;;;;3.70;3.40;;;;;;;-147.86;100.00;46076.73;105916;1254;60508;-54
2024/02/10 06:57:57;;;;;;;3.20;3.00;;;;;;;-147.86;100.00;46149.23;105893;1257;60358;-53
2024/02/10 07:00:28;;;;;;;2.90;2.70;;;;;;;-147.86;100.00;46159.02;105878;1253;72522;-57
2024/02/10 07:02:56;;;;;;;3.80;3.10;;;;;;;-147.86;100.00;46315.77;105921;1251;63695;-54
2024/02/10 07:05:25;;;;;;;3.50;3.20;;;;;;;-147.86;100.00;46455.29;105880;1254;71371;-56
2024/02/10 07:07:55;;;;;;;4.90;2.60;;;;;;;-147.86;100.00;46516.03;105923;1255;60549;-53
2024/02/10 07:10:23;;;;;;;4.80;3.80;;;;;;;-147.86;100.00;46522.69;105917;1252;60446;-55
2024/02/10 07:12:55;;;;;;;4.90;3.50;;;;;;;-147.86;100.00;46667.70;105932;1257;73801;-55
2024/02/10 07:15:29;;;;;;;4.80;3.50;;;;;;;-147.86;100.00;46770.38;105883;1251;63109;-55
2024/02/10 07:18:02;;;;;;;5.00;3.50;;;;;;;-147.86;100.00;46707.68;105927;1254;71536;-54
2024/02/10 07:20:32;;;;;;;4.60;3.60;;;;;;;-147.86;100.00;46839.76;105914;1256;60478;-57
2024/02/10 07:23:03;;;;;;;4.30;3.30;;;;;;;-147.86;100.00;47017.70;105977;1257;60543;-57
2024/02/10 07:25:33;;;;;;;5.90;3.70;;;;;;;-147.86;100.00;47117.65;105912;1251;72571;-55
2024/02/10 07:28:01;;;;;;;5.90;3.40;;;;;;;-147.86;100.00;47215.64;105911;1256;64658;-55
2024/02/10 07:30:33;;;;;;;4.80;3.20;;;;;;;-147.86;100.00;47191.34;105898;1257;71424;-57
2024/02/10 07:33:12;;;;;;;4.10;3.70;;;;;;;-147.86;100.00;47248.57;105969;1256;60559;-57
2024/02/10 07:35:43;;;;;;;6.60;3.40;;;;;;;-147.86;100.00;47486.12;105890;1257;60441;-56
2024/02/10 07:38:11;;;;;;;5.30;3.70;;;;;;;-147.86;100.00;47536.68;105984;1251;72551;-54
2024/02/10 07:40:39;;;;;;;6.90;4.20;;;;;;;-147.86;100.00;47535.90;105875;1251;64794;-54
2024/02/10 07:43:12;;;;;;;5.50;3.40;;;;;;;-147.86;100.00;47546.88;105924;1257;72627;-55
2024/02/10 07:45:40;;;;;;;7.00;4.30;;;;;;;-147.86;100.00;47643.30;105930;1257;60488;-57
2024/02/10 07:48:08;;;;;;;5.80;4.10;;;;;;;-147.86;100.00;47716.22;105893;1256;60523;-56
2024/02/10 07:53:56;;;;;;;8.00;4.60;;;;;;;-147.86;100.00;54509.76;102852;1294;600100;-57
2024/02/10 07:56:28;;;;;;;4.40;3.70;;;;;;;-147.86;100.00;48040.84;105612;1260;60861;-56
2024/02/10 07:58:59;;;;;;;5.30;4.00;;;;;;;-147.86;100.00;48140.81;105572;1257;59966;-57
2024/02/10 08:01:28;;;;;;;5.90;3.80;;;;;;;-147.86;100.00;48230.21;105552;1257;71123;-56
2024/02/10 08:03:57;;;;;;;5.90;3.90;;;;;;;-147.86;100.00;48264.70;105524;1256;63105;-56
2024/02/10 08:06:30;;;;;;;4.10;3.70;;;;;;;-147.86;100.00;48335.28;105417;1257;209600;-57
2024/02/10 08:08:58;;;;;;;5.40;3.70;;;;;;;-147.86;100.00;48497.61;105628;1256;59591;-55
2024/02/10 08:11:28;;;;;;;6.00;3.90;;;;;;;-147.86;100.00;48589.75;105702;1259;59680;-57
2024/02/10 08:13:56;;;;;;;10.00;4.30;;;;;;;-147.86;100.00;48545.45;105657;1259;71046;-54
2024/02/10 08:16:30;;;;;;;10.90;4.00;;;;;;;-147.86;100.00;48574.46;105705;1254;63298;-55
2024/02/10 08:18:59;;;;;;;7.90;4.30;;;;;;;-147.86;100.00;48705.43;105644;1256;71400;-55
2024/02/10 08:21:30;;;;;;;10.20;3.70;;;;;;;-147.86;100.00;48746.60;105714;1257;60011;-56
2024/02/10 08:24:01;;;;;;;7.30;4.40;;;;;;;-147.86;100.00;48761.11;105674;1259;59638;-56
2024/02/10 08:26:28;;;;;;;7.80;4.60;;;;;;;-147.86;100.00;48792.48;105636;1253;72407;-57
2024/02/10 08:28:58;;;;;;;9.60;5.20;;;;;;;-147.86;100.00;48990.51;105636;1259;63112;-55
2024/02/10 08:31:30;;;;;;;6.80;4.80;;;;;;;-147.86;100.00;49126.98;105685;1257;71376;-56
2024/02/10 08:33:58;;;;;;;10.40;4.90;;;;;;;-147.86;100.00;49212.08;105689;1259;59813;-57
2024/02/10 08:36:31;;;;;;;11.10;5.50;;;;;;;-147.86;100.00;49452.49;105661;1253;59637;-55
2024/02/10 08:39:03;;;;;;;9.50;5.20;;;;;;;-147.86;100.00;49445.43;105653;1254;71794;-55
2024/02/10 08:41:31;;;;;;;9.10;4.60;;;;;;;-147.86;100.00;49504.65;105681;1254;63098;-55
2024/02/10 08:43:59;;;;;;;13.30;4.70;;;;;;;-147.86;100.00;49526.22;105633;1253;72645;-55
2024/02/10 08:46:27;;;;;;;11.80;5.30;;;;;;;-147.86;100.00;49565.84;105616;1257;59686;-57
2024/02/10 08:48:55;;;;;;;8.50;4.70;;;;;;;-147.86;100.00;49613.69;105704;1256;59552;-57
2024/02/10 08:51:24;;;;;;;19.10;5.70;;;;;;;-147.86;100.00;49653.30;105547;1257;71962;-56
2024/02/10 08:53:54;;;;;;;13.90;5.40;;;;;;;-147.86;100.00;49766.65;105626;1260;64340;-56
2024/02/10 08:56:23;;;;;;;18.90;6.40;;;;;;;-147.86;100.00;49863.93;105555;1256;71422;-56
2024/02/10 08:58:50;;;;;;;15.50;6.00;;;;;;;-147.86;100.00;49901.98;105672;1256;59701;-56
2024/02/10 09:01:18;;;;;;;10.20;5.00;;;;;;;-147.86;100.00;49958.46;105564;1260;59657;-55
2024/02/10 09:03:49;;;;;;;11.50;5.30;;;;;;;-147.86;100.00;49976.11;105600;1257;72904;-55
2024/02/10 09:06:21;;;;;;;15.20;5.90;;;;;;;-147.86;100.00;49966.30;105586;1255;63213;-55
2024/02/10 09:08:50;;;;;;;12.30;5.70;;;;;;;-147.86;100.00;49932.57;105657;1256;72603;-56
2024/02/10 09:11:18;;;;;;;10.10;5.80;;;;;;;-147.86;100.00;49912.56;105606;1260;59861;-57
2024/02/10 09:13:48;;;;;;;13.00;6.10;;;;;;;-147.86;100.00;49926.68;105634;1256;59977;-55
2024/02/10 09:16:15;;;;;;;16.10;6.40;;;;;;;-147.86;100.00;50003.57;105566;1257;74148;-57
2024/02/10 09:18:43;;;;;;;8.90;6.20;;;;;;;-147.86;100.00;49995.33;105563;1256;63245;-56
2024/02/10 09:21:19;;;;;;;15.20;5.30;;;;;;;-147.86;100.00;50073.78;105609;1257;72621;-55
2024/02/10 09:23:47;;;;;;;10.20;6.00;;;;;;;-147.86;100.00;50067.90;105595;1257;59608;-56
2024/02/10 09:26:17;;;;;;;13.30;6.20;;;;;;;-147.86;100.00;50226.76;105586;1260;59568;-55
2024/02/10 09:28:45;;;;;;;11.10;5.90;;;;;;;-147.86;100.00;50219.70;105603;1260;73268;-57
2024/02/10 09:31:13;;;;;;;15.20;6.30;;;;;;;-147.86;100.00;50258.53;105570;1255;63153;-57
2024/02/10 09:33:45;;;;;;;12.50;6.10;;;;;;;-147.86;100.00;50243.63;105544;1260;72729;-57
2024/02/10 09:36:14;;;;;;;13.40;6.60;;;;;;;-147.86;100.00;50278.54;105613;1256;59747;-55
2024/02/10 09:38:42;;;;;;;15.20;6.10;;;;;;;-147.86;100.00;50331.89;105589;1256;60024;-55
2024/02/10 09:41:11;;;;;;;11.60;5.80;;;;;;;-147.86;100.00;50351.51;105598;1256;73326;-57
2024/02/10 09:43:39;;;;;;;13.50;6.20;;;;;;;-147.86;100.00;50426.04;105759;1253;65178;-55
2024/02/10 09:46:10;;;;;;;15.00;5.60;;;;;;;-147.86;100.00;50582.18;105723;1253;71758;-56
2024/02/10 09:48:44;;;;;;;13.80;5.90;;;;;;;-147.86;100.00;50587.68;105710;1257;60619;-54
2024/02/10 09:51:12;;;;;;;13.90;5.80;;;;;;;-147.86;100.00;50513.52;105725;1255;59594;-55
2024/02/10 09:53:40;;;;;;;12.10;6.00;;;;;;;-147.86;100.00;50597.48;105831;1257;72031;-57
2024/02/10 09:56:15;;;;;;;10.40;5.70;;;;;;;-147.86;100.00;50534.32;105888;1251;63833;-59
2024/02/10 09:58:46;;;;;;;12.90;6.40;;;;;;;-147.86;100.00;50541.38;105829;1254;71538;-54
2024/02/10 10:01:14;;;;;;;14.90;6.50;;;;;;;-147.86;100.00;50557.86;105725;1253;60841;-56
2024/02/10 10:03:42;;;;;;;14.20;6.70;;;;;;;-147.86;100.00;50635.14;105714;1257;59699;-57
2024/02/10 10:06:10;;;;;;;12.20;6.40;;;;;;;-147.86;100.00;50575.11;105720;1251;71807;-58
2024/02/10 10:08:39;;;;;;;11.60;5.40;;;;;;;-147.86;100.00;50558.25;105880;1253;62631;-55
2024/02/10 10:11:07;;;;;;;11.10;5.90;;;;;;;-147.86;100.00;50579.04;105731;1253;71283;-51
2024/02/10 10:13:37;;;;;;;17.80;6.90;;;;;;;-147.86;100.00;50662.21;105762;1253;59763;-58
2024/02/10 10:16:09;;;;;;;13.70;6.20;;;;;;;-147.86;100.00;50620.63;105672;1254;60000;-56
2024/02/10 10:18:37;;;;;;;15.00;6.30;;;;;;;-147.86;100.00;50558.64;105719;1257;72931;-58
2024/02/10 10:21:06;;;;;;;13.20;6.80;;;;;;;-147.86;100.00;50508.82;105673;1257;66730;-58
2024/02/10 10:23:33;;;;;;;15.30;7.30;;;;;;;-147.86;100.00;50488.02;105865;1253;72605;-56
2024/02/10 10:26:01;;;;;;;16.50;7.80;;;;;;;-147.86;100.00;50594.34;105689;1253;59640;-55
2024/02/10 10:28:33;;;;;;;19.00;9.60;;;;;;;-147.86;100.00;50597.87;105898;1257;59650;-57
2024/02/10 10:31:01;;;;;;;24.80;9.40;;;;;;;-147.86;100.00;50652.40;105838;1258;73621;-56
2024/02/10 10:33:29;;;;;;;15.70;9.30;;;;;;;-147.86;100.00;50730.47;105695;1253;63655;-56
2024/02/10 10:36:00;;;;;;;19.40;9.80;;;;;;;-147.86;100.00;50773.24;105861;1253;71414;-57
2024/02/10 10:38:29;;;;;;;17.10;9.00;;;;;;;-147.86;100.00;50857.98;105894;1257;60885;-57
2024/02/10 10:40:56;;;;;;;20.00;8.30;;;;;;;-147.86;100.00;50908.59;105869;1251;59713;-55
2024/02/10 10:43:26;;;;;;;15.60;7.30;;;;;;;-147.86;100.00;50994.13;105859;1252;71730;-56
2024/02/10 10:45:55;;;;;;;15.20;7.10;;;;;;;-147.86;100.00;51098.10;105726;1253;63114;-55
2024/02/10 10:48:23;;;;;;;18.40;8.10;;;;;;;-147.86;100.00;51202.46;105703;1253;71657;-56
2024/02/10 10:50:56;;;;;;;15.80;7.80;;;;;;;-147.86;100.00;51351.57;105899;1257;61468;-57
2024/02/10 10:53:27;;;;;;;17.70;7.80;;;;;;;-147.86;100.00;51366.48;105877;1256;59558;-57
2024/02/10 10:56:00;;;;;;;18.90;8.30;;;;;;;-147.86;100.00;51393.95;105698;1252;71762;-57
2024/02/10 10:58:32;;;;;;;17.90;7.80;;;;;;;-147.86;100.00;51575.63;105761;1253;63202;-57
2024/02/10 11:01:00;;;;;;;15.70;7.40;;;;;;;-147.86;100.00;51660.39;105890;1253;71469;-54
2024/02/10 11:03:27;;;;;;;15.20;7.60;;;;;;;-147.86;100.00;51745.94;105671;1258;61198;-56
2024/02/10 11:05:55;;;;;;;18.30;8.00;;;;;;;-147.86;100.00;52022.61;105719;1257;60322;-55
2024/02/10 11:08:27;;;;;;;20.20;8.10;;;;;;;-147.86;100.00;52207.06;105839;1252;70622;-58
2024/02/10 11:11:01;;;;;;;18.00;8.60;;;;;;;-147.86;100.00;52251.80;105864;1257;64243;-57
2024/02/10 11:13:31;;;;;;;18.60;7.80;;;;;;;-147.86;100.00;52340.90;105894;1253;73644;-54
2024/02/10 11:16:13;;;;;;;23.20;9.30;;;;;;;-147.86;100.00;52561.09;105764;1257;60869;-56
2024/02/10 11:18:56;;;;;;;21.60;9.50;;;;;;;-147.86;100.00;52744.00;105897;1258;59637;-57
2024/02/10 11:21:29;;;;;;;16.70;8.30;;;;;;;-147.86;100.00;52864.89;105918;1252;73058;-56
2024/02/10 11:24:17;;;;;;;19.80;9.00;;;;;;;-147.86;100.00;53082.76;105879;1254;63247;-58
2024/02/10 11:26:46;;;;;;;18.40;8.90;;;;;;;-147.86;100.00;53183.26;105880;1253;72613;-54
2024/02/10 11:29:18;;;;;;;17.20;8.00;;;;;;;-147.86;100.00;53327.33;105748;1253;59814;-57
2024/02/10 11:31:47;;;;;;;20.10;8.70;;;;;;;-147.86;100.00;53398.78;105891;1257;59587;-58
2024/02/10 11:34:16;;;;;;;24.00;8.40;;;;;;;-147.86;100.00;53595.48;105822;1257;73912;-57
2024/02/10 11:38:26;;;;;;;26.50;10.20;;;;;;;-147.86;100.00;65341.34;102704;1290;601178;-58
2024/02/10 11:40:53;;;;;;;25.50;8.80;;;;;;;-147.86;100.00;54773.87;105028;1264;59815;-57
2024/02/10 11:43:21;;;;;;;18.40;8.20;;;;;;;-147.86;100.00;54532.34;104854;1266;59315;-58
2024/02/10 11:45:49;;;;;;;18.80;8.00;;;;;;;-147.86;100.00;54170.69;104890;1263;72156;-59
2024/02/10 11:48:17;;;;;;;23.30;9.10;;;;;;;-147.86;100.00;53990.46;104906;1269;65067;-56
2024/02/10 11:50:46;;;;;;;16.80;8.10;;;;;;;-147.86;100.00;53745.84;104876;1266;71868;-55
2024/02/10 11:53:16;;;;;;;16.40;8.20;;;;;;;-147.86;100.00;53597.04;104948;1266;229733;-54
2024/02/10 11:55:47;;;;;;;18.30;8.10;;;;;;;-147.86;100.00;53613.14;105170;1265;59798;-55
2024/02/10 11:58:18;;;;;;;19.10;8.00;;;;;;;-147.86;100.00;53710.51;105146;1264;74506;-52
2024/02/10 12:00:46;;;;;;;16.20;7.30;;;;;;;-147.86;100.00;53799.24;104997;1268;64207;-55
2024/02/10 12:03:15;;;;;;;18.30;7.70;;;;;;;-147.86;100.00;53997.92;105146;1267;72750;-54
2024/02/10 12:05:43;;;;;;;18.70;8.30;;;;;;;-147.86;100.00;54132.21;105565;1260;61198;-57
2024/02/10 12:08:11;;;;;;;16.60;6.90;;;;;;;-147.86;100.00;54225.26;105624;1256;59606;-58
2024/02/10 12:10:39;;;;;;;20.40;8.00;;;;;;;-147.86;100.00;54372.13;105525;1260;73374;-56
2024/02/10 12:13:10;;;;;;;17.70;7.80;;;;;;;-147.86;100.00;54586.14;105591;1257;63141;-57
2024/02/10 12:15:38;;;;;;;16.80;7.50;;;;;;;-147.86;100.00;54833.95;105573;1256;71723;-57